Time;durP1;ratioP1;P1;durP2;ratioP2;P2;SDS_P1;SDS_P2;PMS_P1;PMS_P2;Temp;Humidity;BMP_temperature;BMP_pressure;BME280_temperature;BME280_humidity;BME280_pressure;Samples;Min_cycle;Max_cycle;Signal;HPM_P1;HPM_P2
2021/09/28 00:01:10;;;;;;;7.32;5.57;;;;;;;34.12;25.04;94624.75;5073446;28;20371;-41
2021/09/28 00:03:37;;;;;;;6.40;5.80;;;;;;;34.52;24.42;94629.81;5080386;28;20051;-41
2021/09/28 00:06:04;;;;;;;7.50;5.60;;;;;;;34.23;24.57;94625.19;5094220;28;20051;-40
2021/09/28 00:08:31;;;;;;;6.88;6.18;;;;;;;34.20;24.74;94620.63;5094814;28;20039;-41
2021/09/28 00:10:58;;;;;;;6.28;5.57;;;;;;;34.48;24.26;94632.63;5090826;28;20054;-41
2021/09/28 00:13:25;;;;;;;6.20;5.60;;;;;;;34.38;24.41;94628.28;5064651;28;20052;-40
2021/09/28 00:15:52;;;;;;;6.32;5.70;;;;;;;33.92;25.04;94626.88;5078111;28;20459;-41
2021/09/28 00:18:19;;;;;;;6.30;5.70;;;;;;;34.23;24.72;94630.63;5077165;28;20051;-41
2021/09/28 00:20:46;;;;;;;6.20;5.60;;;;;;;34.30;24.58;94616.09;5078381;28;20063;-41
2021/09/28 00:23:14;;;;;;;7.70;5.97;;;;;;;34.08;24.70;94617.91;5080221;28;20170;-41
2021/09/28 00:25:44;;;;;;;6.93;5.85;;;;;;;34.20;24.34;94620.63;5098170;28;20047;-41
2021/09/28 00:28:12;;;;;;;5.65;5.15;;;;;;;34.34;24.32;94624.91;5098509;28;20044;-41
2021/09/28 00:30:39;;;;;;;6.15;5.55;;;;;;;34.46;24.16;94624.16;5066080;28;20049;-41
2021/09/28 00:33:06;;;;;;;6.07;5.47;;;;;;;34.47;24.12;94627.63;5078585;28;20044;-41
2021/09/28 00:35:33;;;;;;;7.25;5.15;;;;;;;34.30;24.64;94611.41;5097993;28;20465;-41
2021/09/28 00:38:01;;;;;;;6.05;5.32;;;;;;;34.28;24.33;94605.66;5098346;28;20474;-41
2021/09/28 00:40:30;;;;;;;5.70;5.20;;;;;;;34.31;24.32;94610.22;5098163;28;20056;-41
2021/09/28 00:42:58;;;;;;;7.25;5.65;;;;;;;34.35;24.14;94604.72;5098068;28;20036;-41
2021/09/28 00:45:25;;;;;;;5.95;5.30;;;;;;;34.39;24.19;94604.63;5096600;28;20050;-41
2021/09/28 00:47:53;;;;;;;5.40;4.90;;;;;;;34.40;24.28;94595.28;5082216;28;20411;-41
2021/09/28 00:50:20;;;;;;;6.10;5.28;;;;;;;34.53;24.02;94593.31;5077542;28;20052;-41
2021/09/28 00:52:47;;;;;;;7.30;5.78;;;;;;;34.52;24.24;94591.81;5077792;28;20481;-42
2021/09/28 00:55:16;;;;;;;7.30;5.10;;;;;;;34.30;24.51;94594.38;5076902;28;20048;-42
2021/09/28 00:57:44;;;;;;;5.85;5.32;;;;;;;34.25;24.67;94601.09;5077487;28;20051;-41
2021/09/28 01:00:11;;;;;;;6.03;5.00;;;;;;;34.38;24.38;94603.88;5049255;28;20049;-41
2021/09/28 01:02:39;;;;;;;6.53;5.60;;;;;;;34.47;24.10;94605.94;5056882;28;20049;-41
2021/09/28 01:05:08;;;;;;;5.43;4.90;;;;;;;34.43;24.29;94613.41;5069107;28;20063;-41
2021/09/28 01:07:35;;;;;;;5.93;5.43;;;;;;;34.61;24.12;94616.34;5077354;28;20048;-41
2021/09/28 01:10:04;;;;;;;5.82;4.85;;;;;;;34.02;24.71;94614.97;5077486;28;20048;-41
2021/09/28 01:12:31;;;;;;;5.97;5.38;;;;;;;33.98;24.84;94609.63;5077322;28;20040;-41
2021/09/28 01:14:58;;;;;;;6.93;5.60;;;;;;;34.24;24.44;94609.69;5091942;28;20461;-40
2021/09/28 01:17:25;;;;;;;9.63;5.25;;;;;;;34.36;24.50;94605.50;5085315;28;20078;-41
2021/09/28 01:19:52;;;;;;;7.13;5.55;;;;;;;34.57;23.88;94599.41;5077010;28;20454;-41
2021/09/28 01:22:19;;;;;;;6.47;5.70;;;;;;;34.47;23.77;94595.06;5076060;28;20456;-42
2021/09/28 01:24:47;;;;;;;7.00;5.93;;;;;;;34.33;24.04;94596.97;5089651;28;20066;-41
2021/09/28 01:27:15;;;;;;;8.43;5.95;;;;;;;34.46;23.70;94596.28;5096368;28;20047;-41
2021/09/28 01:29:43;;;;;;;7.18;5.65;;;;;;;34.42;23.80;94592.91;5090338;28;20044;-44
2021/09/28 01:32:10;;;;;;;6.72;5.20;;;;;;;34.33;23.95;94586.13;5077065;28;20435;-42
2021/09/28 01:34:37;;;;;;;6.47;5.88;;;;;;;34.65;23.47;94595.28;5070158;28;20054;-41
2021/09/28 01:37:05;;;;;;;7.75;5.80;;;;;;;34.42;23.71;94592.91;5095626;28;20059;-41
2021/09/28 01:39:32;;;;;;;6.13;5.53;;;;;;;34.52;23.94;94594.53;5097202;28;20047;-41
2021/09/28 01:41:59;;;;;;;6.07;5.47;;;;;;;34.36;23.84;94589.22;5097074;28;20351;-42
2021/09/28 01:44:27;;;;;;;6.10;5.28;;;;;;;34.48;23.87;94596.59;5096362;28;20040;-41
2021/09/28 01:46:54;;;;;;;6.82;5.57;;;;;;;34.47;23.87;94584.97;5088760;28;20049;-42
2021/09/28 01:49:21;;;;;;;8.13;5.72;;;;;;;34.42;23.99;94599.09;5076478;28;20048;-41
2021/09/28 01:51:49;;;;;;;6.35;5.65;;;;;;;34.52;23.70;94606.13;5075597;28;20060;-41
2021/09/28 01:54:16;;;;;;;7.38;6.00;;;;;;;34.36;23.73;94605.50;5074946;28;20048;-41
2021/09/28 01:56:43;;;;;;;6.07;5.47;;;;;;;34.48;23.45;94615.59;5076257;28;20048;-41
2021/09/28 01:59:10;;;;;;;6.28;5.68;;;;;;;34.30;23.98;94608.69;5058383;28;20048;-41
2021/09/28 02:01:37;;;;;;;9.02;5.68;;;;;;;34.38;23.97;94613.97;5076397;28;20051;-41
2021/09/28 02:04:05;;;;;;;7.45;6.03;;;;;;;34.46;23.89;94623.41;5075476;28;20059;-41
2021/09/28 02:06:37;;;;;;;7.65;5.40;;;;;;;34.51;23.76;94612.00;5075985;28;20044;-42
2021/09/28 02:09:07;;;;;;;6.13;5.38;;;;;;;34.47;23.96;94619.50;5075574;28;20455;-42
2021/09/28 02:11:35;;;;;;;5.53;5.03;;;;;;;34.45;23.45;94619.94;5076287;28;20059;-43
2021/09/28 02:14:04;;;;;;;8.10;5.20;;;;;;;34.60;23.53;94620.25;5081405;28;20059;-41
2021/09/28 02:16:31;;;;;;;6.30;5.70;;;;;;;34.36;24.17;94613.63;5083415;28;20041;-41
2021/09/28 02:18:58;;;;;;;7.53;5.68;;;;;;;34.31;24.06;94615.66;5057553;28;20056;-40
2021/09/28 02:21:25;;;;;;;7.22;5.43;;;;;;;34.52;23.86;94621.66;5075010;28;20059;-41
2021/09/28 02:23:52;;;;;;;7.88;5.57;;;;;;;34.42;24.02;94614.63;5078749;28;20052;-40
2021/09/28 02:26:19;;;;;;;5.95;5.35;;;;;;;34.43;23.91;94616.13;5095848;28;20047;-41
2021/09/28 02:28:46;;;;;;;6.10;5.50;;;;;;;34.38;24.19;94613.97;5077687;28;20044;-42
2021/09/28 02:31:13;;;;;;;7.18;5.60;;;;;;;34.36;24.14;94613.63;5075547;28;20366;-41
2021/09/28 02:33:40;;;;;;;6.60;5.25;;;;;;;34.37;24.12;94613.22;5077256;28;20049;-41
2021/09/28 02:36:07;;;;;;;6.38;5.70;;;;;;;34.62;23.80;94612.44;5095069;28;20052;-41
2021/09/28 02:38:34;;;;;;;6.40;5.78;;;;;;;34.51;23.99;94606.56;5095625;28;20446;-41
2021/09/28 02:41:01;;;;;;;6.20;5.60;;;;;;;34.56;23.63;94597.88;5095833;28;20051;-41
2021/09/28 02:43:28;;;;;;;6.55;5.63;;;;;;;34.45;23.75;94603.66;5095914;28;20043;-42
2021/09/28 02:45:55;;;;;;;6.70;5.95;;;;;;;34.58;23.83;94614.50;5075359;28;20044;-42
2021/09/28 02:48:22;;;;;;;6.38;5.72;;;;;;;34.46;23.94;94604.41;5074318;28;20051;-41
2021/09/28 02:50:49;;;;;;;6.38;5.78;;;;;;;34.57;23.76;94610.25;5074401;28;20045;-43
2021/09/28 02:53:16;;;;;;;6.70;6.10;;;;;;;33.99;24.83;94610.41;5075269;28;20055;-41
2021/09/28 02:55:44;;;;;;;7.55;6.38;;;;;;;34.51;23.97;94607.34;5092530;28;20050;-40
2021/09/28 02:58:11;;;;;;;7.90;6.70;;;;;;;34.47;24.08;94619.50;5094895;28;20044;-41
2021/09/28 03:00:38;;;;;;;7.22;6.35;;;;;;;34.53;23.82;94615.03;5080707;28;20044;-41
2021/09/28 03:03:05;;;;;;;6.70;5.88;;;;;;;34.72;23.95;94614.06;5075203;28;20055;-41
2021/09/28 03:05:32;;;;;;;7.10;6.40;;;;;;;34.52;24.38;94624.38;5090223;28;20347;-41
2021/09/28 03:08:00;;;;;;;6.82;6.20;;;;;;;34.66;24.26;94625.91;5095598;28;20062;-41
2021/09/28 03:10:27;;;;;;;7.53;6.60;;;;;;;34.63;24.14;94622.88;5095215;28;20051;-41
2021/09/28 03:12:54;;;;;;;7.50;6.72;;;;;;;34.62;24.11;94617.88;5095330;28;20126;-42
2021/09/28 03:15:21;;;;;;;8.95;6.85;;;;;;;34.69;23.87;94623.06;5094003;28;20052;-42
2021/09/28 03:17:48;;;;;;;7.75;6.68;;;;;;;34.53;24.30;94613.09;5079965;28;20052;-41
2021/09/28 03:20:15;;;;;;;8.40;6.80;;;;;;;34.46;24.14;94609.84;5064457;28;20066;-41
2021/09/28 03:22:42;;;;;;;7.18;6.28;;;;;;;34.71;23.89;94609.81;5075057;28;20059;-41
2021/09/28 03:25:09;;;;;;;6.90;6.30;;;;;;;34.56;24.16;94608.75;5074645;28;20448;-42
2021/09/28 03:27:37;;;;;;;7.75;6.65;;;;;;;34.54;24.21;94606.47;5073966;28;20367;-41
2021/09/28 03:30:05;;;;;;;8.98;6.05;;;;;;;34.82;23.87;94610.25;5074235;28;20079;-41
2021/09/28 03:32:32;;;;;;;10.80;6.45;;;;;;;34.57;24.50;94608.31;5074005;28;20044;-43
2021/09/28 03:34:59;;;;;;;6.70;5.70;;;;;;;34.69;24.25;94601.34;5074400;28;20060;-41
2021/09/28 03:37:26;;;;;;;7.05;6.45;;;;;;;34.81;24.11;94606.00;5074797;28;20048;-41
2021/09/28 03:39:53;;;;;;;6.53;5.93;;;;;;;34.64;24.15;94612.78;5074493;28;20044;-42
2021/09/28 03:42:20;;;;;;;7.65;6.45;;;;;;;34.79;24.04;94627.41;5074697;28;20051;-41
2021/09/28 03:44:47;;;;;;;7.20;6.40;;;;;;;34.62;24.13;94640.34;5074534;28;20324;-41
2021/09/28 03:47:14;;;;;;;7.32;6.18;;;;;;;34.70;23.88;94640.13;5074054;28;20048;-41
2021/09/28 03:49:41;;;;;;;6.80;5.40;;;;;;;34.67;24.17;94646.44;5074267;28;20451;-40
2021/09/28 03:52:08;;;;;;;6.20;5.60;;;;;;;34.58;24.10;94641.63;5074643;28;20063;-41
2021/09/28 03:54:35;;;;;;;6.18;5.57;;;;;;;34.77;24.09;94646.09;5080421;28;20044;-41
2021/09/28 03:57:02;;;;;;;6.50;5.45;;;;;;;34.69;24.25;94646.75;5093922;28;20048;-43
2021/09/28 03:59:29;;;;;;;7.47;5.97;;;;;;;34.74;23.99;94641.53;5089356;28;20528;-41
2021/09/28 04:01:56;;;;;;;7.53;5.28;;;;;;;34.77;23.96;94646.09;5073511;28;20052;-41
2021/09/28 04:04:23;;;;;;;6.28;5.00;;;;;;;34.66;24.07;94644.91;5078100;28;20040;-41
2021/09/28 04:06:50;;;;;;;5.95;5.20;;;;;;;34.65;23.91;94630.56;5094918;28;20048;-41
2021/09/28 04:09:17;;;;;;;6.68;5.57;;;;;;;34.66;23.49;94639.47;5094468;28;20048;-41
2021/09/28 04:11:45;;;;;;;7.85;5.38;;;;;;;34.68;23.52;94632.41;5082248;28;20059;-41
2021/09/28 04:14:15;;;;;;;5.68;4.90;;;;;;;34.61;23.63;94643.47;5076594;28;20047;-42
2021/09/28 04:16:42;;;;;;;6.15;5.18;;;;;;;34.86;23.34;94648.91;5073440;28;20052;-40
2021/09/28 04:19:10;;;;;;;5.50;4.78;;;;;;;34.72;23.49;94633.06;5059273;28;20556;-49
2021/09/28 04:21:38;;;;;;;6.28;4.50;;;;;;;34.62;23.41;94637.63;5066216;28;20056;-42
2021/09/28 04:24:06;;;;;;;9.82;4.38;;;;;;;34.70;23.19;94631.97;5055832;28;20041;-44
2021/09/28 04:26:34;;;;;;;5.65;4.25;;;;;;;34.67;23.04;94628.19;5059752;28;20436;-43
2021/09/28 04:29:01;;;;;;;7.10;4.70;;;;;;;34.65;23.36;94622.44;5057336;28;20052;-43
2021/09/28 04:31:28;;;;;;;5.13;4.55;;;;;;;34.72;22.96;94627.63;5057544;28;20049;-42
2021/09/28 04:33:55;;;;;;;6.78;4.78;;;;;;;34.53;23.30;94623.19;5053207;28;20049;-43
2021/09/28 04:36:22;;;;;;;6.20;4.32;;;;;;;34.57;23.45;94615.69;5054056;28;20375;-41
2021/09/28 04:38:50;;;;;;;4.57;4.15;;;;;;;34.79;22.93;94611.13;5055950;28;20359;-43
2021/09/28 04:41:17;;;;;;;10.52;4.55;;;;;;;34.62;23.10;94612.44;5074011;28;20052;-43
2021/09/28 04:43:44;;;;;;;5.28;4.70;;;;;;;33.75;24.43;94607.16;5073572;28;20036;-41
2021/09/28 04:46:11;;;;;;;5.32;4.60;;;;;;;33.47;24.58;94608.69;5091432;28;20048;-42
2021/09/28 04:48:39;;;;;;;6.47;4.45;;;;;;;33.94;24.23;94605.50;5073197;28;20466;-42
2021/09/28 04:51:06;;;;;;;8.65;5.40;;;;;;;33.76;24.14;94624.94;5078307;28;20068;-43
2021/09/28 04:53:33;;;;;;;6.15;4.53;;;;;;;33.66;24.38;94615.94;5073981;28;20044;-40
2021/09/28 04:56:00;;;;;;;5.15;4.65;;;;;;;34.06;23.46;94612.91;5090297;28;20074;-41
2021/09/28 04:58:27;;;;;;;5.00;4.53;;;;;;;34.23;23.33;94617.06;5094541;28;20048;-41
2021/09/28 05:00:54;;;;;;;4.68;3.95;;;;;;;35.10;22.10;94618.69;5080378;28;20048;-40
2021/09/28 05:03:21;;;;;;;4.95;4.45;;;;;;;35.57;21.60;94618.69;5060680;28;20367;-40
2021/09/28 05:05:49;;;;;;;6.68;4.65;;;;;;;35.91;21.28;94620.59;5071756;28;20071;-40
2021/09/28 05:08:16;;;;;;;5.40;4.35;;;;;;;35.02;22.14;94614.69;5077537;28;20067;-46
2021/09/28 05:10:43;;;;;;;5.05;4.55;;;;;;;36.21;20.62;94612.94;5077202;28;20051;-40
2021/09/28 05:13:10;;;;;;;5.40;4.78;;;;;;;35.88;20.87;94615.28;5077286;28;20056;-41
2021/09/28 05:15:37;;;;;;;5.38;4.30;;;;;;;35.17;22.26;94618.47;5089012;28;20051;-40
2021/09/28 05:18:04;;;;;;;4.90;4.50;;;;;;;34.85;22.50;94620.25;5078927;28;20052;-40
2021/09/28 05:20:35;;;;;;;4.93;4.50;;;;;;;34.70;22.73;94624.59;5076741;28;20447;-40
2021/09/28 05:23:05;;;;;;;5.30;4.80;;;;;;;34.53;22.75;94634.03;5058248;28;20443;-41
2021/09/28 05:25:32;;;;;;;4.65;4.25;;;;;;;34.55;22.57;94639.78;5080392;28;20040;-41
2021/09/28 05:27:59;;;;;;;5.55;4.47;;;;;;;34.38;23.36;94632.97;5084818;28;20040;-41
2021/09/28 05:30:26;;;;;;;4.82;4.28;;;;;;;34.37;23.57;94634.91;5075643;28;20044;-40
2021/09/28 05:32:53;;;;;;;4.65;4.25;;;;;;;34.32;24.26;94635.41;5076972;28;20045;-43
2021/09/28 05:35:21;;;;;;;6.10;4.10;;;;;;;34.45;23.89;94632.75;5076507;28;20385;-46
2021/09/28 05:37:48;;;;;;;6.55;4.70;;;;;;;34.40;24.04;94641.44;5076309;28;20470;-40
2021/09/28 05:40:15;;;;;;;5.22;4.50;;;;;;;34.54;23.40;94641.75;5076857;28;20363;-41
2021/09/28 05:42:42;;;;;;;9.15;5.00;;;;;;;34.50;24.00;94643.03;5077183;28;20055;-40
2021/09/28 05:45:10;;;;;;;5.75;5.00;;;;;;;34.41;24.10;94645.66;5076581;28;20040;-41
2021/09/28 05:47:37;;;;;;;5.20;4.70;;;;;;;34.37;24.01;94650.44;5076790;28;20057;-40
2021/09/28 05:50:05;;;;;;;5.35;4.85;;;;;;;34.33;23.49;94645.81;5076188;28;20055;-41
2021/09/28 05:52:35;;;;;;;6.70;5.88;;;;;;;34.61;23.03;94643.47;5076014;28;20059;-41
2021/09/28 05:55:02;;;;;;;5.55;5.05;;;;;;;34.41;22.96;94645.66;5076104;28;20044;-49
2021/09/28 05:57:29;;;;;;;5.22;4.72;;;;;;;34.51;22.94;94647.28;5076550;28;20045;-43
2021/09/28 05:59:56;;;;;;;7.97;5.53;;;;;;;34.50;22.95;94651.19;5076027;28;20056;-41
2021/09/28 06:02:23;;;;;;;7.60;5.63;;;;;;;34.32;23.25;94655.16;5076485;28;20044;-40
2021/09/28 06:04:51;;;;;;;8.95;5.00;;;;;;;33.90;24.57;94656.38;5076072;28;20044;-41
2021/09/28 06:07:18;;;;;;;6.88;5.50;;;;;;;34.33;23.80;94664.06;5076153;28;20052;-41
2021/09/28 06:09:46;;;;;;;7.63;6.15;;;;;;;34.22;23.73;94661.66;5076283;28;20048;-41
2021/09/28 06:12:13;;;;;;;7.03;6.30;;;;;;;34.32;23.44;94659.81;5076576;28;20048;-40
2021/09/28 06:14:41;;;;;;;6.20;5.60;;;;;;;34.12;23.93;94660.03;5078841;28;20060;-41
2021/09/28 06:17:09;;;;;;;7.57;6.03;;;;;;;33.97;23.61;94669.72;5086500;28;20056;-41
2021/09/28 06:19:36;;;;;;;7.35;6.50;;;;;;;34.21;23.54;94667.50;5069436;28;20051;-43
2021/09/28 06:22:05;;;;;;;8.73;7.05;;;;;;;34.53;23.21;94670.06;5080709;28;20063;-41
2021/09/28 06:24:33;;;;;;;6.40;5.72;;;;;;;34.55;23.37;94672.34;5077222;28;20470;-40
2021/09/28 06:27:06;;;;;;;6.70;6.10;;;;;;;34.48;23.14;94678.75;5077666;28;20055;-41
2021/09/28 06:29:33;;;;;;;7.07;6.05;;;;;;;34.55;22.95;94677.78;5090246;28;20048;-40
2021/09/28 06:32:00;;;;;;;6.68;5.70;;;;;;;34.43;23.14;94673.13;5075854;28;20044;-41
2021/09/28 06:34:27;;;;;;;6.68;5.60;;;;;;;34.52;22.56;94674.00;5074912;28;20051;-43
2021/09/28 06:36:54;;;;;;;6.05;5.35;;;;;;;34.48;22.79;94678.00;5095878;28;20054;-42
2021/09/28 06:39:21;;;;;;;7.57;5.65;;;;;;;34.59;22.59;94686.56;5085741;28;20040;-41
2021/09/28 06:41:48;;;;;;;7.20;5.35;;;;;;;34.56;22.62;94682.78;5075680;28;20066;-40
2021/09/28 06:44:16;;;;;;;6.50;5.35;;;;;;;34.45;22.65;94684.31;5075717;28;20359;-41
2021/09/28 06:46:43;;;;;;;8.57;6.18;;;;;;;34.54;22.48;94676.25;5087402;28;20048;-41
2021/09/28 06:49:10;;;;;;;7.22;5.78;;;;;;;34.63;22.23;94684.53;5075184;28;20044;-41
2021/09/28 06:51:37;;;;;;;6.88;5.75;;;;;;;34.69;22.21;94685.50;5075174;28;20065;-40
2021/09/28 06:54:04;;;;;;;7.80;5.65;;;;;;;34.63;22.46;94689.97;5075429;28;20455;-48
2021/09/28 06:56:31;;;;;;;6.15;5.53;;;;;;;34.63;22.60;94684.53;5074994;28;20052;-41
2021/09/28 06:58:58;;;;;;;7.25;5.38;;;;;;;34.58;22.38;94687.78;5074806;28;20048;-41
2021/09/28 07:01:25;;;;;;;6.70;5.47;;;;;;;34.57;22.52;94686.25;5056592;28;20047;-41
2021/09/28 07:03:53;;;;;;;7.00;5.43;;;;;;;34.63;22.43;94684.53;5075327;28;20055;-41
2021/09/28 07:06:21;;;;;;;6.07;5.47;;;;;;;34.54;22.51;94687.88;5074808;28;20048;-40
2021/09/28 07:08:50;;;;;;;5.80;5.30;;;;;;;34.68;22.57;94681.28;5074483;28;20052;-40
2021/09/28 07:11:17;;;;;;;6.30;5.38;;;;;;;34.75;22.20;94680.28;5075052;28;20047;-40
2021/09/28 07:13:45;;;;;;;5.70;5.10;;;;;;;34.67;22.59;94687.91;5075077;28;20052;-41
2021/09/28 07:16:12;;;;;;;6.03;5.43;;;;;;;34.60;22.67;94680.72;5085682;28;20048;-41
2021/09/28 07:18:39;;;;;;;7.45;5.28;;;;;;;34.66;22.97;94694.53;5074718;28;20051;-42
2021/09/28 07:21:07;;;;;;;8.40;5.78;;;;;;;34.86;22.43;94686.94;5073673;28;20051;-41
2021/09/28 07:23:34;;;;;;;6.82;5.25;;;;;;;34.60;23.13;94688.09;5074932;28;20057;-41
2021/09/28 07:26:02;;;;;;;7.80;5.90;;;;;;;34.73;22.31;94688.13;5074539;28;20041;-41
2021/09/28 07:28:29;;;;;;;7.43;5.32;;;;;;;34.77;21.99;94686.81;5074057;28;20048;-40
2021/09/28 07:30:56;;;;;;;6.75;5.43;;;;;;;34.69;22.30;94682.81;5074491;28;20052;-40
2021/09/28 07:33:24;;;;;;;6.13;5.40;;;;;;;34.66;22.16;94683.66;5080184;28;20051;-41
2021/09/28 07:35:51;;;;;;;6.30;5.40;;;;;;;34.90;22.05;94687.59;5093408;28;20047;-41
2021/09/28 07:38:19;;;;;;;9.20;7.90;;;;;;;34.75;21.97;94689.19;5095023;28;20048;-46
2021/09/28 07:40:48;;;;;;;9.27;6.28;;;;;;;34.61;22.12;94686.91;5092386;28;20051;-41
2021/09/28 07:43:16;;;;;;;9.00;6.35;;;;;;;34.87;21.82;94693.91;5077619;28;20766;-41
2021/09/28 07:45:43;;;;;;;8.80;7.03;;;;;;;34.66;22.09;94683.66;5073550;28;20052;-41
2021/09/28 07:48:10;;;;;;;7.65;6.75;;;;;;;34.90;22.37;94690.31;5074475;28;20079;-41
2021/09/28 07:50:38;;;;;;;7.20;6.50;;;;;;;34.85;22.10;94693.56;5074578;28;20059;-41
2021/09/28 07:53:07;;;;;;;7.40;6.65;;;;;;;35.28;22.23;94696.91;5089357;28;20446;-41
2021/09/28 07:55:36;;;;;;;8.52;6.70;;;;;;;35.02;21.93;94698.88;5075867;28;20051;-41
2021/09/28 07:58:04;;;;;;;6.90;6.20;;;;;;;34.91;22.13;94702.72;5094820;28;20218;-40
2021/09/28 08:00:31;;;;;;;8.32;6.40;;;;;;;34.86;22.22;94708.66;5080995;28;20048;-41
2021/09/28 08:02:59;;;;;;;7.10;6.38;;;;;;;34.58;22.36;94704.06;5069426;28;20047;-41
2021/09/28 08:05:26;;;;;;;8.82;6.13;;;;;;;34.79;22.64;94708.84;5094389;28;20044;-41
2021/09/28 08:07:53;;;;;;;8.82;6.65;;;;;;;34.87;22.65;94704.78;5094316;28;20044;-41
2021/09/28 08:10:20;;;;;;;7.43;6.40;;;;;;;34.86;23.10;94703.22;5094975;28;20048;-40
2021/09/28 08:12:47;;;;;;;6.90;5.47;;;;;;;34.90;22.40;94703.91;5081935;28;20466;-41
2021/09/28 08:15:14;;;;;;;6.25;5.25;;;;;;;35.10;21.99;94697.47;5074133;28;20056;-41
2021/09/28 08:17:41;;;;;;;7.63;5.75;;;;;;;35.31;21.83;94691.34;5074469;28;20509;-41
2021/09/28 08:20:10;;;;;;;14.82;12.35;;;;;;;35.31;22.04;94704.94;5074359;28;20055;-41
2021/09/28 08:22:39;;;;;;;7.68;6.60;;;;;;;35.17;21.95;94703.44;5084289;28;20059;-40
2021/09/28 08:25:13;;;;;;;7.68;6.97;;;;;;;35.46;21.92;94711.47;5094020;28;20051;-42
2021/09/28 08:30:25;;;;;;;9.70;7.30;;;;;;;35.38;21.57;94710.16;5081582;28;20052;-42
2021/09/28 08:32:53;;;;;;;7.80;6.22;;;;;;;35.51;21.71;94713.63;5073866;28;20051;-41
2021/09/28 08:35:20;;;;;;;6.60;5.90;;;;;;;35.42;21.72;94718.97;5077032;28;20048;-42
2021/09/28 08:37:47;;;;;;;7.72;6.05;;;;;;;35.52;21.53;94709.72;5078077;28;20052;-43
2021/09/28 08:40:15;;;;;;;8.05;5.93;;;;;;;35.72;21.21;94711.41;5078052;28;20387;-40
2021/09/28 08:42:43;;;;;;;7.70;5.97;;;;;;;35.65;21.11;94714.34;5076990;28;20446;-41
2021/09/28 08:45:10;;;;;;;7.50;6.03;;;;;;;35.98;21.21;94717.53;5077508;28;20050;-42
2021/09/28 08:47:45;;;;;;;20.67;18.58;;;;;;;36.15;20.83;94710.69;5069004;28;20534;-41
2021/09/28 08:50:17;;;;;;;10.70;9.65;;;;;;;36.24;20.97;94718.16;5057859;28;20051;-41
2021/09/28 08:52:48;;;;;;;8.70;7.80;;;;;;;36.34;20.59;94717.81;5070863;28;20060;-41
2021/09/28 08:55:15;;;;;;;7.40;6.70;;;;;;;36.27;20.96;94712.59;5077172;28;20051;-41
2021/09/28 08:57:42;;;;;;;8.10;7.20;;;;;;;36.22;20.20;94709.69;5077795;28;20056;-41
2021/09/28 09:00:21;;;;;;;8.82;6.40;;;;;;;36.20;20.29;94707.41;5077625;28;20351;-41
2021/09/28 09:02:48;;;;;;;7.43;6.45;;;;;;;36.35;20.85;94704.94;5077722;28;20052;-41
2021/09/28 09:05:17;;;;;;;6.38;5.72;;;;;;;36.34;20.88;94712.34;5077111;28;20459;-41
2021/09/28 09:08:01;;;;;;;8.23;6.00;;;;;;;36.22;20.50;94709.69;5077620;28;20049;-41
2021/09/28 09:10:33;;;;;;;27.33;24.75;;;;;;;36.38;20.62;94701.34;5077551;28;20044;-41
2021/09/28 09:13:00;;;;;;;10.85;9.38;;;;;;;36.17;20.64;94702.84;5089069;28;20079;-41
2021/09/28 09:15:31;;;;;;;8.43;7.60;;;;;;;36.10;20.52;94703.84;5096355;28;20044;-43
2021/09/28 09:17:59;;;;;;;;;;;;;;;36.41;20.46;94708.59;5081050;28;20052;-42
2021/09/28 09:20:28;;;;;;;7.22;6.28;;;;;;;36.48;20.92;94700.19;5077277;28;19927;-45
2021/09/28 09:23:02;;;;;;;7.70;6.75;;;;;;;36.54;21.10;94687.53;5085590;28;20051;-42
2021/09/28 09:25:29;;;;;;;7.13;5.90;;;;;;;36.72;20.79;94695.78;5040691;28;20482;-41
2021/09/28 09:27:56;;;;;;;7.03;5.90;;;;;;;36.77;20.74;94696.41;5057256;28;20045;-43
2021/09/28 09:30:32;;;;;;;7.85;5.45;;;;;;;36.76;20.92;94701.09;5069096;28;20364;-42
2021/09/28 09:33:00;;;;;;;6.45;5.80;;;;;;;36.71;20.31;94697.00;5087094;28;20048;-42
2021/09/28 09:35:32;;;;;;;6.70;5.78;;;;;;;36.63;20.47;94690.28;5097210;28;20044;-47
2021/09/28 09:38:15;;;;;;;6.90;5.70;;;;;;;36.57;20.67;94689.34;5097329;28;20047;-46
2021/09/28 09:40:44;;;;;;;6.10;5.50;;;;;;;36.69;20.27;94699.38;5097130;28;20067;-42
2021/09/28 09:43:12;;;;;;;6.18;5.57;;;;;;;36.65;19.73;94693.31;5083316;28;20051;-41
2021/09/28 09:45:40;;;;;;;6.50;5.43;;;;;;;36.79;20.05;94694.00;5076435;28;20040;-41
2021/09/28 09:48:23;;;;;;;5.80;5.20;;;;;;;36.72;19.60;94682.16;5076512;28;20394;-42
2021/09/28 09:51:06;;;;;;;10.57;5.97;;;;;;;37.03;19.29;94689.56;5076740;28;20063;-42
2021/09/28 09:53:36;;;;;;;8.05;5.70;;;;;;;36.84;19.80;94693.44;5090652;28;20044;-46
2021/09/28 09:56:03;;;;;;;6.68;5.20;;;;;;;36.94;20.46;94684.06;5096714;28;20332;-51
2021/09/28 09:58:31;;;;;;;8.55;5.43;;;;;;;36.67;19.93;94690.91;5096845;28;20039;-41
2021/09/28 10:00:58;;;;;;;8.25;5.70;;;;;;;36.68;20.10;94689.69;5079098;28;20439;-40
2021/09/28 10:03:25;;;;;;;6.32;5.72;;;;;;;36.54;20.23;94690.25;5089868;28;20458;-42
2021/09/28 10:05:52;;;;;;;6.47;5.65;;;;;;;36.49;20.30;94685.38;5096598;28;20047;-41
2021/09/28 10:08:19;;;;;;;5.90;5.03;;;;;;;36.49;20.93;94684.63;5096626;28;20553;-41
2021/09/28 10:10:56;;;;;;;5.85;5.25;;;;;;;36.40;20.86;94674.44;5096716;28;20059;-41
2021/09/28 10:13:46;;;;;;;8.25;5.28;;;;;;;36.59;20.19;94684.22;5082714;28;20056;-41
2021/09/28 10:16:40;;;;;;;7.77;5.73;;;;;;;36.31;20.82;94685.28;5075171;28;20052;-41
2021/09/28 10:19:26;;;;;;;5.65;5.05;;;;;;;36.40;20.56;94682.59;5076017;28;20051;-41
2021/09/28 10:21:54;;;;;;;8.52;5.80;;;;;;;36.43;20.73;94681.69;5075594;28;20052;-41
2021/09/28 10:24:21;;;;;;;7.10;5.63;;;;;;;36.47;20.94;94671.47;5075861;28;20356;-40
2021/09/28 10:27:08;;;;;;;7.72;5.60;;;;;;;36.75;20.67;94678.53;5075901;28;20037;-41
2021/09/28 10:29:49;;;;;;;7.25;5.05;;;;;;;36.89;19.90;94673.75;5075667;28;20374;-40
2021/09/28 10:32:34;;;;;;;5.63;5.07;;;;;;;37.01;20.21;94675.63;5077675;28;20047;-41
2021/09/28 10:35:10;;;;;;;6.35;5.07;;;;;;;36.99;19.96;94678.06;5055195;28;20060;-41
2021/09/28 10:38:12;;;;;;;5.90;5.10;;;;;;;37.24;19.46;94664.19;5055728;28;20052;-40
2021/09/28 10:40:46;;;;;;;6.53;5.25;;;;;;;37.20;19.38;94670.97;5038809;28;20075;-40
2021/09/28 10:43:30;;;;;;;9.35;5.30;;;;;;;37.23;19.29;94661.91;5065174;28;20375;-41
2021/09/28 10:46:00;;;;;;;8.50;4.80;;;;;;;37.12;19.51;94670.50;5074791;28;20474;-41
2021/09/28 10:48:27;;;;;;;5.90;5.30;;;;;;;37.32;19.55;94656.50;5055543;28;20052;-41
2021/09/28 10:51:06;;;;;;;5.88;5.22;;;;;;;37.28;19.35;94656.66;5054749;28;20053;-41
2021/09/28 10:53:36;;;;;;;5.13;4.68;;;;;;;37.34;19.59;94652.09;5083220;28;20040;-41
2021/09/28 10:56:07;;;;;;;6.97;5.05;;;;;;;37.31;19.47;94650.28;5094963;28;20477;-41
2021/09/28 10:58:53;;;;;;;6.25;5.18;;;;;;;37.33;19.08;94658.78;5095536;28;20051;-41
2021/09/28 11:01:25;;;;;;;6.50;4.85;;;;;;;37.43;19.24;94661.50;5094833;28;20051;-41
2021/09/28 11:04:15;;;;;;;7.25;5.10;;;;;;;37.43;19.48;94653.31;5095072;28;20047;-41
2021/09/28 11:06:45;;;;;;;6.57;5.32;;;;;;;37.07;19.70;94660.22;5095394;28;20044;-41
2021/09/28 11:09:16;;;;;;;5.40;4.70;;;;;;;37.07;19.38;94665.66;5095480;28;20052;-40
2021/09/28 11:11:47;;;;;;;7.93;4.85;;;;;;;36.92;19.24;94651.06;5095525;28;20056;-41
2021/09/28 11:14:14;;;;;;;5.78;5.18;;;;;;;36.75;19.94;94648.59;5094915;28;20051;-41
2021/09/28 11:16:54;;;;;;;7.35;5.20;;;;;;;36.88;19.24;94648.50;5089245;28;20134;-41
2021/09/28 11:19:22;;;;;;;73.15;65.50;;;;;;;36.89;19.32;94646.53;5074012;28;20048;-41
2021/09/28 11:21:49;;;;;;;25.17;22.23;;;;;;;36.67;19.95;94652.78;5057574;28;20059;-41
2021/09/28 11:24:21;;;;;;;32.53;29.05;;;;;;;36.75;19.29;94643.16;5093017;28;20048;-41
2021/09/28 11:26:50;;;;;;;12.57;11.27;;;;;;;36.67;19.47;94641.13;5095250;28;20044;-40
2021/09/28 11:29:21;;;;;;;11.65;9.52;;;;;;;36.68;19.80;94650.81;5091717;28;20447;-41
2021/09/28 11:31:48;;;;;;;10.25;8.10;;;;;;;36.72;19.70;94638.59;5074965;28;20048;-41
2021/09/28 11:34:27;;;;;;;9.95;7.55;;;;;;;36.88;19.99;94636.84;5074358;28;20040;-40
2021/09/28 11:37:01;;;;;;;8.32;6.40;;;;;;;36.84;20.00;94634.25;5074889;28;20049;-41
2021/09/28 11:39:31;;;;;;;8.40;6.50;;;;;;;36.71;20.08;94636.31;5074377;28;20055;-41
2021/09/28 11:41:59;;;;;;;7.80;6.30;;;;;;;36.87;19.68;94636.09;5074838;28;20045;-40
2021/09/28 11:44:40;;;;;;;7.68;5.53;;;;;;;36.83;20.05;94632.00;5074093;28;20044;-47